Terminal Aerodrome Forecast
Issued by NWS

Current Version | Previous Version | Text Only | Print | Product List | Glossary Off
Versions: 1 2 3 4 5 6 7 8 9 10 11 12 13 14 15 16 17 18 19

000
FTUS41 KILN 251700
TAFLCK
TAF
KLCK 251740Z 2518/2618 02005KT P6SM BKN250
     FM260400 04008KT P6SM OVC080
     FM261200 02010KT P6SM VCSH OVC050
     FM261500 02012KT 5SM -SN OVC020=

USA.gov is the U.S. government's official web portal to all federal, state and local government web resources and services.